Terminal Aerodrome Forecast
Issued by NWS

Home | Current Version | Previous Version | Graphics & Text | Print | Product List | Glossary On
Versions: 1 2 3 4 5 6 7 8 9 10 11 12 13 14 15 16 17 18 19 20
000
FTUS43 KPAH 010520
TAFCGI
TAF
KCGI 010520Z 0106/0206 24004KT P6SM VCSH OVC035
     FM010800 30005KT 5SM BR VCSH BKN040 BKN060
      TEMPO 0110/0114 4SM -DZ BR OVC014
     FM011600 29003KT P6SM VCSH BKN028
     FM020200 12003KT P6SM BKN040=

USA.gov is the U.S. government's official web portal to all federal, state and local government web resources and services.